sensor_id;sensor_type;location;lat;lon;timestamp;P1;P2;P0
65383;PMS5003;51986;52.788;41.368;2024-03-17T00:00:32;35.00;29.00;22.00
65383;PMS5003;51986;52.788;41.368;2024-03-17T00:02:58;35.00;28.25;22.00
65383;PMS5003;51986;52.788;41.368;2024-03-17T00:05:24;34.00;28.00;22.00
65383;PMS5003;51986;52.788;41.368;2024-03-17T00:07:50;33.75;28.00;22.00
65383;PMS5003;51986;52.788;41.368;2024-03-17T00:10:16;33.50;28.00;22.00
65383;PMS5003;51986;52.788;41.368;2024-03-17T00:12:42;35.00;29.00;22.00
65383;PMS5003;51986;52.788;41.368;2024-03-17T00:15:08;35.00;29.00;22.25
65383;PMS5003;51986;52.788;41.368;2024-03-17T00:17:34;33.00;28.00;22.00
65383;PMS5003;51986;52.788;41.368;2024-03-17T00:20:00;33.00;28.00;22.00
65383;PMS5003;51986;52.788;41.368;2024-03-17T00:22:29;36.00;29.00;22.25
65383;PMS5003;51986;52.788;41.368;2024-03-17T00:24:55;35.50;29.00;22.50
65383;PMS5003;51986;52.788;41.368;2024-03-17T00:27:21;35.00;29.00;22.00
65383;PMS5003;51986;52.788;41.368;2024-03-17T00:29:47;33.50;28.25;21.50
65383;PMS5003;51986;52.788;41.368;2024-03-17T00:32:13;34.00;29.00;22.00
65383;PMS5003;51986;52.788;41.368;2024-03-17T00:34:38;34.00;29.00;22.00
65383;PMS5003;51986;52.788;41.368;2024-03-17T00:37:04;34.00;28.50;22.00
65383;PMS5003;51986;52.788;41.368;2024-03-17T00:39:30;34.00;28.00;22.00
65383;PMS5003;51986;52.788;41.368;2024-03-17T00:41:56;33.00;28.00;22.00
65383;PMS5003;51986;52.788;41.368;2024-03-17T00:44:22;33.50;29.00;22.00
65383;PMS5003;51986;52.788;41.368;2024-03-17T00:46:48;32.00;27.00;22.00
65383;PMS5003;51986;52.788;41.368;2024-03-17T00:49:13;33.00;27.00;22.00
65383;PMS5003;51986;52.788;41.368;2024-03-17T00:51:39;34.25;28.00;22.00
65383;PMS5003;51986;52.788;41.368;2024-03-17T00:54:12;35.00;29.00;22.50
65383;PMS5003;51986;52.788;41.368;2024-03-17T00:56:38;35.00;29.00;23.00
65383;PMS5003;51986;52.788;41.368;2024-03-17T00:59:04;34.00;29.00;23.00
65383;PMS5003;51986;52.788;41.368;2024-03-17T01:01:30;33.00;28.00;22.00
65383;PMS5003;51986;52.788;41.368;2024-03-17T01:03:56;34.00;28.00;22.00
65383;PMS5003;51986;52.788;41.368;2024-03-17T01:06:22;34.00;29.00;22.00
65383;PMS5003;51986;52.788;41.368;2024-03-17T01:08:47;34.00;29.00;22.00
65383;PMS5003;51986;52.788;41.368;2024-03-17T01:11:14;35.00;28.50;22.00
65383;PMS5003;51986;52.788;41.368;2024-03-17T01:13:41;33.50;28.00;21.00
65383;PMS5003;51986;52.788;41.368;2024-03-17T01:16:07;33.50;28.00;21.25
65383;PMS5003;51986;52.788;41.368;2024-03-17T01:18:33;33.00;28.00;21.00
65383;PMS5003;51986;52.788;41.368;2024-03-17T01:20:59;34.00;28.00;22.00
65383;PMS5003;51986;52.788;41.368;2024-03-17T01:23:25;33.25;29.00;22.00
65383;PMS5003;51986;52.788;41.368;2024-03-17T01:25:51;33.00;28.00;22.00
65383;PMS5003;51986;52.788;41.368;2024-03-17T01:28:17;34.00;28.00;22.00
65383;PMS5003;51986;52.788;41.368;2024-03-17T01:30:42;34.00;27.25;22.00
65383;PMS5003;51986;52.788;41.368;2024-03-17T01:33:08;33.00;27.00;21.00
65383;PMS5003;51986;52.788;41.368;2024-03-17T01:35:34;32.00;28.00;22.00
65383;PMS5003;51986;52.788;41.368;2024-03-17T01:38:00;33.75;28.00;21.00
65383;PMS5003;51986;52.788;41.368;2024-03-17T01:40:30;35.00;28.00;22.00
65383;PMS5003;51986;52.788;41.368;2024-03-17T01:46:39;35.00;28.00;22.00
65383;PMS5003;51986;52.788;41.368;2024-03-17T01:49:05;35.00;28.00;22.00
65383;PMS5003;51986;52.788;41.368;2024-03-17T01:51:31;35.00;29.00;22.00
65383;PMS5003;51986;52.788;41.368;2024-03-17T01:53:57;34.00;29.00;22.00
65383;PMS5003;51986;52.788;41.368;2024-03-17T01:56:23;35.00;28.50;22.00
65383;PMS5003;51986;52.788;41.368;2024-03-17T01:58:49;33.00;28.50;22.00
65383;PMS5003;51986;52.788;41.368;2024-03-17T02:01:17;34.00;28.00;22.00
65383;PMS5003;51986;52.788;41.368;2024-03-17T02:03:43;32.00;26.00;21.00
65383;PMS5003;51986;52.788;41.368;2024-03-17T02:06:09;33.00;27.00;21.00
65383;PMS5003;51986;52.788;41.368;2024-03-17T02:08:53;32.00;26.00;20.00
65383;PMS5003;51986;52.788;41.368;2024-03-17T02:11:33;32.00;27.00;20.50
65383;PMS5003;51986;52.788;41.368;2024-03-17T02:13:59;34.75;28.00;22.00
65383;PMS5003;51986;52.788;41.368;2024-03-17T02:16:25;35.50;29.00;22.00
65383;PMS5003;51986;52.788;41.368;2024-03-17T02:18:55;35.75;29.00;22.25
65383;PMS5003;51986;52.788;41.368;2024-03-17T02:21:21;33.25;28.50;22.00
65383;PMS5003;51986;52.788;41.368;2024-03-17T02:23:48;35.00;29.00;21.00
65383;PMS5003;51986;52.788;41.368;2024-03-17T02:26:14;33.00;27.00;21.00
65383;PMS5003;51986;52.788;41.368;2024-03-17T02:28:40;33.00;28.00;22.00
65383;PMS5003;51986;52.788;41.368;2024-03-17T02:33:59;32.00;26.00;20.00
65383;PMS5003;51986;52.788;41.368;2024-03-17T02:36:25;34.00;28.00;21.00
65383;PMS5003;51986;52.788;41.368;2024-03-17T02:38:51;33.50;27.50;21.50
65383;PMS5003;51986;52.788;41.368;2024-03-17T02:41:17;34.75;29.00;22.00
65383;PMS5003;51986;52.788;41.368;2024-03-17T02:43:42;35.00;29.00;22.00
65383;PMS5003;51986;52.788;41.368;2024-03-17T02:46:12;35.00;29.00;22.00
65383;PMS5003;51986;52.788;41.368;2024-03-17T02:48:42;34.75;29.00;22.00
65383;PMS5003;51986;52.788;41.368;2024-03-17T02:51:09;33.50;28.00;22.00
65383;PMS5003;51986;52.788;41.368;2024-03-17T02:53:35;33.00;28.00;21.50
65383;PMS5003;51986;52.788;41.368;2024-03-17T02:56:01;33.00;28.00;22.00
65383;PMS5003;51986;52.788;41.368;2024-03-17T02:58:27;34.25;28.75;22.00
65383;PMS5003;51986;52.788;41.368;2024-03-17T03:00:52;32.25;28.00;22.00
65383;PMS5003;51986;52.788;41.368;2024-03-17T03:09:06;35.00;29.25;22.00
65383;PMS5003;51986;52.788;41.368;2024-03-17T03:11:41;36.00;29.75;23.00
65383;PMS5003;51986;52.788;41.368;2024-03-17T03:14:07;34.00;28.00;22.00
65383;PMS5003;51986;52.788;41.368;2024-03-17T03:16:33;32.00;26.00;22.00
65383;PMS5003;51986;52.788;41.368;2024-03-17T03:19:00;33.00;28.00;22.00
65383;PMS5003;51986;52.788;41.368;2024-03-17T03:21:25;36.75;29.00;22.00
65383;PMS5003;51986;52.788;41.368;2024-03-17T03:23:52;35.50;29.00;22.00
65383;PMS5003;51986;52.788;41.368;2024-03-17T03:26:17;35.00;29.00;22.00
65383;PMS5003;51986;52.788;41.368;2024-03-17T03:28:48;35.00;29.00;22.00
65383;PMS5003;51986;52.788;41.368;2024-03-17T03:31:13;32.00;26.50;21.00
65383;PMS5003;51986;52.788;41.368;2024-03-17T03:33:40;32.00;26.00;20.00
65383;PMS5003;51986;52.788;41.368;2024-03-17T03:36:15;33.00;28.00;21.00
65383;PMS5003;51986;52.788;41.368;2024-03-17T03:38:42;34.00;28.00;22.00
65383;PMS5003;51986;52.788;41.368;2024-03-17T03:41:14;35.50;29.00;23.00
65383;PMS5003;51986;52.788;41.368;2024-03-17T03:43:41;35.75;28.00;22.00
65383;PMS5003;51986;52.788;41.368;2024-03-17T03:46:07;35.00;27.50;22.00
65383;PMS5003;51986;52.788;41.368;2024-03-17T03:48:33;33.00;28.00;22.00
65383;PMS5003;51986;52.788;41.368;2024-03-17T03:51:05;34.50;29.00;22.00
65383;PMS5003;51986;52.788;41.368;2024-03-17T03:53:32;35.00;29.00;22.00
65383;PMS5003;51986;52.788;41.368;2024-03-17T03:55:58;35.00;29.00;22.00
65383;PMS5003;51986;52.788;41.368;2024-03-17T03:58:24;35.00;29.00;23.00
65383;PMS5003;51986;52.788;41.368;2024-03-17T04:00:50;36.00;29.00;23.00
65383;PMS5003;51986;52.788;41.368;2024-03-17T04:03:16;36.00;29.00;23.00
65383;PMS5003;51986;52.788;41.368;2024-03-17T04:05:42;35.00;29.00;22.00
65383;PMS5003;51986;52.788;41.368;2024-03-17T04:08:08;35.00;29.00;22.00
65383;PMS5003;51986;52.788;41.368;2024-03-17T04:10:34;35.00;29.00;23.00
65383;PMS5003;51986;52.788;41.368;2024-03-17T04:13:00;35.00;29.00;23.00
65383;PMS5003;51986;52.788;41.368;2024-03-17T04:15:26;36.00;29.25;22.00
65383;PMS5003;51986;52.788;41.368;2024-03-17T04:17:52;36.00;30.00;22.00
65383;PMS5003;51986;52.788;41.368;2024-03-17T04:20:17;35.25;29.00;22.25
65383;PMS5003;51986;52.788;41.368;2024-03-17T04:22:43;35.00;29.00;23.00
65383;PMS5003;51986;52.788;41.368;2024-03-17T04:25:10;35.00;30.00;23.00
65383;PMS5003;51986;52.788;41.368;2024-03-17T04:27:38;35.00;29.50;22.00
65383;PMS5003;51986;52.788;41.368;2024-03-17T04:30:05;36.50;30.00;23.00
65383;PMS5003;51986;52.788;41.368;2024-03-17T04:32:32;35.00;29.00;23.00
65383;PMS5003;51986;52.788;41.368;2024-03-17T04:34:59;36.00;29.00;22.00
65383;PMS5003;51986;52.788;41.368;2024-03-17T04:37:25;33.25;28.00;22.00
65383;PMS5003;51986;52.788;41.368;2024-03-17T04:39:51;33.00;27.00;20.00
65383;PMS5003;51986;52.788;41.368;2024-03-17T04:42:17;34.00;27.75;22.00
65383;PMS5003;51986;52.788;41.368;2024-03-17T04:44:44;35.00;28.00;22.00
65383;PMS5003;51986;52.788;41.368;2024-03-17T04:54:37;34.00;28.50;22.00
65383;PMS5003;51986;52.788;41.368;2024-03-17T04:57:03;33.00;28.00;22.00
65383;PMS5003;51986;52.788;41.368;2024-03-17T04:59:29;32.00;28.00;22.00
65383;PMS5003;51986;52.788;41.368;2024-03-17T05:01:55;35.00;29.00;22.00
65383;PMS5003;51986;52.788;41.368;2024-03-17T05:04:21;35.00;29.00;22.00
65383;PMS5003;51986;52.788;41.368;2024-03-17T05:06:50;35.00;29.00;22.00
65383;PMS5003;51986;52.788;41.368;2024-03-17T05:09:16;35.00;29.00;22.00
65383;PMS5003;51986;52.788;41.368;2024-03-17T05:11:43;36.00;30.00;23.00
65383;PMS5003;51986;52.788;41.368;2024-03-17T05:14:09;37.00;30.00;23.00
65383;PMS5003;51986;52.788;41.368;2024-03-17T05:16:35;34.00;29.00;23.00
65383;PMS5003;51986;52.788;41.368;2024-03-17T05:19:01;35.25;28.50;22.50
65383;PMS5003;51986;52.788;41.368;2024-03-17T05:21:27;36.00;29.00;22.00
65383;PMS5003;51986;52.788;41.368;2024-03-17T05:23:53;36.00;29.50;23.00
65383;PMS5003;51986;52.788;41.368;2024-03-17T05:26:19;36.00;30.00;23.00
65383;PMS5003;51986;52.788;41.368;2024-03-17T05:28:45;36.50;30.00;23.00
65383;PMS5003;51986;52.788;41.368;2024-03-17T05:31:11;35.00;29.00;22.00
65383;PMS5003;51986;52.788;41.368;2024-03-17T05:33:37;33.00;28.00;22.00
65383;PMS5003;51986;52.788;41.368;2024-03-17T05:36:03;34.50;29.00;22.00
65383;PMS5003;51986;52.788;41.368;2024-03-17T05:38:29;35.00;29.00;22.00
65383;PMS5003;51986;52.788;41.368;2024-03-17T05:40:58;36.00;29.50;23.00
65383;PMS5003;51986;52.788;41.368;2024-03-17T05:43:29;35.00;30.00;23.00
65383;PMS5003;51986;52.788;41.368;2024-03-17T05:45:57;36.00;30.25;23.00
65383;PMS5003;51986;52.788;41.368;2024-03-17T05:48:23;37.00;30.00;23.25
65383;PMS5003;51986;52.788;41.368;2024-03-17T05:50:49;36.00;31.00;23.00
65383;PMS5003;51986;52.788;41.368;2024-03-17T05:53:17;36.75;30.00;23.00
65383;PMS5003;51986;52.788;41.368;2024-03-17T05:55:43;36.00;29.00;23.00
65383;PMS5003;51986;52.788;41.368;2024-03-17T05:58:09;36.00;30.25;23.00
65383;PMS5003;51986;52.788;41.368;2024-03-17T06:00:36;37.50;30.75;23.00
65383;PMS5003;51986;52.788;41.368;2024-03-17T06:03:03;35.50;29.00;23.00
65383;PMS5003;51986;52.788;41.368;2024-03-17T06:05:33;36.50;30.00;23.00
65383;PMS5003;51986;52.788;41.368;2024-03-17T06:08:01;37.00;30.00;23.50
65383;PMS5003;51986;52.788;41.368;2024-03-17T06:10:31;38.00;30.00;23.00
65383;PMS5003;51986;52.788;41.368;2024-03-17T06:12:58;36.00;29.25;23.00
65383;PMS5003;51986;52.788;41.368;2024-03-17T06:15:25;36.75;30.00;23.00
65383;PMS5003;51986;52.788;41.368;2024-03-17T06:17:52;36.00;30.00;23.00
65383;PMS5003;51986;52.788;41.368;2024-03-17T06:20:20;37.50;30.00;23.00
65383;PMS5003;51986;52.788;41.368;2024-03-17T06:22:47;37.75;30.75;24.00
65383;PMS5003;51986;52.788;41.368;2024-03-17T06:25:13;37.00;31.00;23.00
65383;PMS5003;51986;52.788;41.368;2024-03-17T06:27:42;37.00;30.50;24.00
65383;PMS5003;51986;52.788;41.368;2024-03-17T06:30:12;38.25;32.00;23.00
65383;PMS5003;51986;52.788;41.368;2024-03-17T06:32:39;38.00;31.00;23.00
65383;PMS5003;51986;52.788;41.368;2024-03-17T06:35:15;37.00;31.00;23.00
65383;PMS5003;51986;52.788;41.368;2024-03-17T06:37:44;37.50;31.00;24.00
65383;PMS5003;51986;52.788;41.368;2024-03-17T06:40:14;39.50;31.00;24.00
65383;PMS5003;51986;52.788;41.368;2024-03-17T06:42:40;39.00;32.00;25.00
65383;PMS5003;51986;52.788;41.368;2024-03-17T06:45:06;38.50;32.00;25.00
65383;PMS5003;51986;52.788;41.368;2024-03-17T06:47:38;39.00;32.00;24.00
65383;PMS5003;51986;52.788;41.368;2024-03-17T06:50:06;38.25;31.00;24.00
65383;PMS5003;51986;52.788;41.368;2024-03-17T06:52:32;38.00;31.00;24.00
65383;PMS5003;51986;52.788;41.368;2024-03-17T06:54:58;39.00;32.00;24.00
65383;PMS5003;51986;52.788;41.368;2024-03-17T06:57:24;38.50;31.25;24.00
65383;PMS5003;51986;52.788;41.368;2024-03-17T06:59:50;39.00;32.00;24.50
65383;PMS5003;51986;52.788;41.368;2024-03-17T07:02:16;38.00;31.00;24.00
65383;PMS5003;51986;52.788;41.368;2024-03-17T07:04:43;39.00;31.50;24.50
65383;PMS5003;51986;52.788;41.368;2024-03-17T07:07:09;40.00;32.00;24.00
65383;PMS5003;51986;52.788;41.368;2024-03-17T07:09:35;40.25;33.00;24.00
65383;PMS5003;51986;52.788;41.368;2024-03-17T07:12:01;39.00;32.00;24.00
65383;PMS5003;51986;52.788;41.368;2024-03-17T07:14:27;38.25;32.00;24.00
65383;PMS5003;51986;52.788;41.368;2024-03-17T07:16:53;38.00;31.00;24.00
65383;PMS5003;51986;52.788;41.368;2024-03-17T07:19:19;37.00;31.00;24.00
65383;PMS5003;51986;52.788;41.368;2024-03-17T07:21:45;39.00;31.25;24.00
65383;PMS5003;51986;52.788;41.368;2024-03-17T07:24:11;38.00;31.00;25.00
65383;PMS5003;51986;52.788;41.368;2024-03-17T07:26:37;39.50;31.50;25.00
65383;PMS5003;51986;52.788;41.368;2024-03-17T07:29:03;39.00;32.00;25.00
65383;PMS5003;51986;52.788;41.368;2024-03-17T07:31:29;40.00;32.50;24.00
65383;PMS5003;51986;52.788;41.368;2024-03-17T07:33:55;40.00;32.00;24.00
65383;PMS5003;51986;52.788;41.368;2024-03-17T07:36:20;38.25;31.00;24.00
65383;PMS5003;51986;52.788;41.368;2024-03-17T07:38:46;39.50;31.75;26.00
65383;PMS5003;51986;52.788;41.368;2024-03-17T07:41:12;40.00;32.00;24.00
65383;PMS5003;51986;52.788;41.368;2024-03-17T07:43:38;39.00;31.00;24.00
65383;PMS5003;51986;52.788;41.368;2024-03-17T07:46:05;40.00;32.75;25.50
65383;PMS5003;51986;52.788;41.368;2024-03-17T07:48:36;41.00;33.00;26.00
65383;PMS5003;51986;52.788;41.368;2024-03-17T07:51:03;40.00;32.00;26.00
65383;PMS5003;51986;52.788;41.368;2024-03-17T07:53:41;38.75;32.00;24.00
65383;PMS5003;51986;52.788;41.368;2024-03-17T07:56:08;38.50;31.00;25.00
65383;PMS5003;51986;52.788;41.368;2024-03-17T07:58:39;39.00;31.00;24.00
65383;PMS5003;51986;52.788;41.368;2024-03-17T08:01:06;38.00;31.00;24.50
65383;PMS5003;51986;52.788;41.368;2024-03-17T08:03:33;38.50;31.00;24.50
65383;PMS5003;51986;52.788;41.368;2024-03-17T08:06:01;39.00;32.00;25.00
65383;PMS5003;51986;52.788;41.368;2024-03-17T08:08:29;38.00;32.00;25.00
65383;PMS5003;51986;52.788;41.368;2024-03-17T08:10:55;38.00;32.00;25.00
65383;PMS5003;51986;52.788;41.368;2024-03-17T08:13:21;39.00;32.00;25.00
65383;PMS5003;51986;52.788;41.368;2024-03-17T08:15:54;39.00;32.00;25.00
65383;PMS5003;51986;52.788;41.368;2024-03-17T08:18:22;38.00;31.00;25.00
65383;PMS5003;51986;52.788;41.368;2024-03-17T08:20:48;37.00;30.00;25.00
65383;PMS5003;51986;52.788;41.368;2024-03-17T08:23:14;38.50;31.00;24.00
65383;PMS5003;51986;52.788;41.368;2024-03-17T08:25:40;39.00;32.00;25.00
65383;PMS5003;51986;52.788;41.368;2024-03-17T08:28:07;39.00;32.00;26.00
65383;PMS5003;51986;52.788;41.368;2024-03-17T08:30:33;40.00;32.00;25.00
65383;PMS5003;51986;52.788;41.368;2024-03-17T08:32:59;39.25;32.00;24.00
65383;PMS5003;51986;52.788;41.368;2024-03-17T08:35:26;39.00;32.00;24.00
65383;PMS5003;51986;52.788;41.368;2024-03-17T08:37:52;38.50;32.00;24.25
65383;PMS5003;51986;52.788;41.368;2024-03-17T08:40:18;38.00;32.00;25.00
65383;PMS5003;51986;52.788;41.368;2024-03-17T08:42:44;39.00;33.00;25.00
65383;PMS5003;51986;52.788;41.368;2024-03-17T08:45:10;39.00;32.50;25.50
65383;PMS5003;51986;52.788;41.368;2024-03-17T08:47:37;40.00;33.00;26.00
65383;PMS5003;51986;52.788;41.368;2024-03-17T08:50:02;38.00;31.00;24.00
65383;PMS5003;51986;52.788;41.368;2024-03-17T08:52:29;38.00;31.50;24.00
65383;PMS5003;51986;52.788;41.368;2024-03-17T08:54:55;40.00;32.00;26.00
65383;PMS5003;51986;52.788;41.368;2024-03-17T08:57:21;39.00;32.00;26.00
65383;PMS5003;51986;52.788;41.368;2024-03-17T08:59:47;39.00;32.00;25.00
65383;PMS5003;51986;52.788;41.368;2024-03-17T09:02:13;39.00;32.50;25.50
65383;PMS5003;51986;52.788;41.368;2024-03-17T09:04:40;39.00;32.00;26.00
65383;PMS5003;51986;52.788;41.368;2024-03-17T09:07:06;41.25;33.00;26.00
65383;PMS5003;51986;52.788;41.368;2024-03-17T09:09:32;41.00;34.00;26.25
65383;PMS5003;51986;52.788;41.368;2024-03-17T09:11:58;41.00;34.00;26.50
65383;PMS5003;51986;52.788;41.368;2024-03-17T09:14:24;40.50;33.00;26.00
65383;PMS5003;51986;52.788;41.368;2024-03-17T09:16:50;39.25;32.00;25.75
65383;PMS5003;51986;52.788;41.368;2024-03-17T09:19:16;40.75;32.75;25.00
65383;PMS5003;51986;52.788;41.368;2024-03-17T09:21:42;41.00;33.00;26.00
65383;PMS5003;51986;52.788;41.368;2024-03-17T09:24:08;39.50;32.00;25.00
65383;PMS5003;51986;52.788;41.368;2024-03-17T09:26:35;41.50;33.00;26.00
65383;PMS5003;51986;52.788;41.368;2024-03-17T09:29:01;40.00;32.75;25.00
65383;PMS5003;51986;52.788;41.368;2024-03-17T09:31:27;39.75;33.00;27.00
65383;PMS5003;51986;52.788;41.368;2024-03-17T09:33:53;39.00;33.00;27.00
65383;PMS5003;51986;52.788;41.368;2024-03-17T09:36:19;39.00;32.00;27.00
65383;PMS5003;51986;52.788;41.368;2024-03-17T09:38:45;39.00;32.00;25.00
65383;PMS5003;51986;52.788;41.368;2024-03-17T09:41:20;39.00;32.00;25.00
65383;PMS5003;51986;52.788;41.368;2024-03-17T09:43:48;39.50;32.00;25.00
65383;PMS5003;51986;52.788;41.368;2024-03-17T09:46:14;39.00;32.00;24.00
65383;PMS5003;51986;52.788;41.368;2024-03-17T09:48:40;39.00;31.75;24.25
65383;PMS5003;51986;52.788;41.368;2024-03-17T09:51:06;40.00;33.00;26.00
65383;PMS5003;51986;52.788;41.368;2024-03-17T09:53:35;39.00;32.00;25.00
65383;PMS5003;51986;52.788;41.368;2024-03-17T09:56:03;37.00;31.00;24.00
65383;PMS5003;51986;52.788;41.368;2024-03-17T09:58:29;39.00;32.00;24.00
65383;PMS5003;51986;52.788;41.368;2024-03-17T10:00:55;39.00;32.00;25.00
65383;PMS5003;51986;52.788;41.368;2024-03-17T10:06:07;39.00;32.00;25.00
65383;PMS5003;51986;52.788;41.368;2024-03-17T10:08:33;39.00;33.00;26.00
65383;PMS5003;51986;52.788;41.368;2024-03-17T10:10:58;38.75;32.50;26.00
65383;PMS5003;51986;52.788;41.368;2024-03-17T10:13:24;39.00;32.75;26.00
65383;PMS5003;51986;52.788;41.368;2024-03-17T10:15:51;37.00;32.00;25.00
65383;PMS5003;51986;52.788;41.368;2024-03-17T10:18:20;39.00;32.00;25.00
65383;PMS5003;51986;52.788;41.368;2024-03-17T10:20:48;39.00;32.00;25.00
65383;PMS5003;51986;52.788;41.368;2024-03-17T10:23:15;40.00;33.00;25.00
65383;PMS5003;51986;52.788;41.368;2024-03-17T10:25:40;39.00;32.00;24.75
65383;PMS5003;51986;52.788;41.368;2024-03-17T10:28:10;39.00;32.00;25.00
65383;PMS5003;51986;52.788;41.368;2024-03-17T10:30:40;39.00;31.50;25.00
65383;PMS5003;51986;52.788;41.368;2024-03-17T10:33:07;39.00;32.75;25.00
65383;PMS5003;51986;52.788;41.368;2024-03-17T10:35:44;38.00;32.00;25.00
65383;PMS5003;51986;52.788;41.368;2024-03-17T10:38:10;39.50;32.00;27.00
65383;PMS5003;51986;52.788;41.368;2024-03-17T10:40:38;39.50;32.00;27.00
65383;PMS5003;51986;52.788;41.368;2024-03-17T10:43:05;40.00;32.00;25.00
65383;PMS5003;51986;52.788;41.368;2024-03-17T10:45:31;39.00;32.00;25.00
65383;PMS5003;51986;52.788;41.368;2024-03-17T10:47:59;37.00;31.00;25.00
65383;PMS5003;51986;52.788;41.368;2024-03-17T10:50:27;38.75;32.00;25.00
65383;PMS5003;51986;52.788;41.368;2024-03-17T10:52:57;39.00;32.00;25.25
65383;PMS5003;51986;52.788;41.368;2024-03-17T10:55:27;39.00;32.00;26.00
65383;PMS5003;51986;52.788;41.368;2024-03-17T10:57:54;39.75;33.00;25.50
65383;PMS5003;51986;52.788;41.368;2024-03-17T11:00:21;40.50;34.00;27.00
65383;PMS5003;51986;52.788;41.368;2024-03-17T11:02:48;40.00;33.00;26.00
65383;PMS5003;51986;52.788;41.368;2024-03-17T11:07:50;39.00;32.00;26.00
65383;PMS5003;51986;52.788;41.368;2024-03-17T11:10:22;38.75;31.75;26.00
65383;PMS5003;51986;52.788;41.368;2024-03-17T11:12:50;39.00;32.00;26.00
65383;PMS5003;51986;52.788;41.368;2024-03-17T11:17:50;39.00;32.00;25.00
65383;PMS5003;51986;52.788;41.368;2024-03-17T11:22:53;40.00;32.00;26.00
65383;PMS5003;51986;52.788;41.368;2024-03-17T11:27:52;40.00;32.00;27.00
65383;PMS5003;51986;52.788;41.368;2024-03-17T11:46:44;38.00;32.00;25.00
65383;PMS5003;51986;52.788;41.368;2024-03-17T11:49:56;37.50;32.00;25.00
65383;PMS5003;51986;52.788;41.368;2024-03-17T11:52:01;37.00;31.00;25.00
65383;PMS5003;51986;52.788;41.368;2024-03-17T11:54:29;37.00;31.00;25.00
65383;PMS5003;51986;52.788;41.368;2024-03-17T11:57:04;39.25;32.00;25.00
65383;PMS5003;51986;52.788;41.368;2024-03-17T11:59:30;39.00;32.00;24.00
65383;PMS5003;51986;52.788;41.368;2024-03-17T12:01:56;38.00;32.00;24.00
65383;PMS5003;51986;52.788;41.368;2024-03-17T12:04:22;37.00;31.00;24.00
65383;PMS5003;51986;52.788;41.368;2024-03-17T12:06:54;39.00;31.50;25.00
65383;PMS5003;51986;52.788;41.368;2024-03-17T12:12:01;39.00;33.00;25.00
65383;PMS5003;51986;52.788;41.368;2024-03-17T12:14:28;39.00;32.00;25.00
65383;PMS5003;51986;52.788;41.368;2024-03-17T12:16:57;37.00;32.00;25.00
65383;PMS5003;51986;52.788;41.368;2024-03-17T12:19:27;37.00;31.00;25.00
65383;PMS5003;51986;52.788;41.368;2024-03-17T12:22:00;38.00;32.00;25.00
65383;PMS5003;51986;52.788;41.368;2024-03-17T12:24:28;37.00;30.50;24.00
65383;PMS5003;51986;52.788;41.368;2024-03-17T12:26:55;37.25;32.00;24.00
65383;PMS5003;51986;52.788;41.368;2024-03-17T12:29:32;39.00;32.00;25.00
65383;PMS5003;51986;52.788;41.368;2024-03-17T12:32:00;38.75;32.00;25.00
65383;PMS5003;51986;52.788;41.368;2024-03-17T12:34:27;37.00;32.00;25.00
65383;PMS5003;51986;52.788;41.368;2024-03-17T12:36:56;39.25;32.00;25.00
65383;PMS5003;51986;52.788;41.368;2024-03-17T12:39:28;38.00;32.00;25.00
65383;PMS5003;51986;52.788;41.368;2024-03-17T12:42:28;40.00;32.00;25.00
65383;PMS5003;51986;52.788;41.368;2024-03-17T12:44:57;40.00;33.00;25.00
65383;PMS5003;51986;52.788;41.368;2024-03-17T12:47:30;40.00;32.00;26.00
65383;PMS5003;51986;52.788;41.368;2024-03-17T12:49:57;38.00;32.00;26.00
65383;PMS5003;51986;52.788;41.368;2024-03-17T12:52:25;38.00;32.00;25.00
65383;PMS5003;51986;52.788;41.368;2024-03-17T12:54:58;39.00;32.00;25.00
65383;PMS5003;51986;52.788;41.368;2024-03-17T12:57:43;38.00;31.75;25.00
65383;PMS5003;51986;52.788;41.368;2024-03-17T13:00:20;37.00;31.00;25.00
65383;PMS5003;51986;52.788;41.368;2024-03-17T13:02:48;38.00;31.00;25.00
65383;PMS5003;51986;52.788;41.368;2024-03-17T13:07:40;37.00;31.00;24.00
65383;PMS5003;51986;52.788;41.368;2024-03-17T13:10:06;36.00;31.00;24.00
65383;PMS5003;51986;52.788;41.368;2024-03-17T13:12:33;37.00;31.00;24.00
65383;PMS5003;51986;52.788;41.368;2024-03-17T13:15:00;37.75;31.00;24.00
65383;PMS5003;51986;52.788;41.368;2024-03-17T13:17:28;40.00;32.50;25.00
65383;PMS5003;51986;52.788;41.368;2024-03-17T13:19:54;39.00;31.50;24.50
65383;PMS5003;51986;52.788;41.368;2024-03-17T13:22:20;38.00;31.00;24.00
65383;PMS5003;51986;52.788;41.368;2024-03-17T13:24:46;38.50;32.00;25.00
65383;PMS5003;51986;52.788;41.368;2024-03-17T13:27:13;40.00;32.00;25.00
65383;PMS5003;51986;52.788;41.368;2024-03-17T13:29:38;38.00;32.00;25.00
65383;PMS5003;51986;52.788;41.368;2024-03-17T13:32:05;38.00;32.00;25.00
65383;PMS5003;51986;52.788;41.368;2024-03-17T13:34:31;40.00;32.50;26.00
65383;PMS5003;51986;52.788;41.368;2024-03-17T13:36:57;37.00;31.00;25.00
65383;PMS5003;51986;52.788;41.368;2024-03-17T13:39:28;37.50;31.00;25.00
65383;PMS5003;51986;52.788;41.368;2024-03-17T13:41:55;37.25;31.00;24.00
65383;PMS5003;51986;52.788;41.368;2024-03-17T13:44:21;38.00;31.00;24.00
65383;PMS5003;51986;52.788;41.368;2024-03-17T13:46:47;38.00;31.00;24.00
65383;PMS5003;51986;52.788;41.368;2024-03-17T13:49:13;38.00;31.00;24.00
65383;PMS5003;51986;52.788;41.368;2024-03-17T13:51:39;39.75;32.00;26.00
65383;PMS5003;51986;52.788;41.368;2024-03-17T13:54:05;38.00;32.00;25.00
65383;PMS5003;51986;52.788;41.368;2024-03-17T13:56:31;38.50;32.00;25.00
65383;PMS5003;51986;52.788;41.368;2024-03-17T13:58:57;38.00;31.00;25.00
65383;PMS5003;51986;52.788;41.368;2024-03-17T14:01:23;38.75;31.00;25.00
65383;PMS5003;51986;52.788;41.368;2024-03-17T14:03:49;38.50;32.00;25.00
65383;PMS5003;51986;52.788;41.368;2024-03-17T14:06:15;39.00;31.25;25.00
65383;PMS5003;51986;52.788;41.368;2024-03-17T14:08:41;38.25;32.00;25.00
65383;PMS5003;51986;52.788;41.368;2024-03-17T14:11:07;38.00;31.00;24.00
65383;PMS5003;51986;52.788;41.368;2024-03-17T14:13:33;39.00;32.00;25.00
65383;PMS5003;51986;52.788;41.368;2024-03-17T14:15:59;39.00;32.00;25.00
65383;PMS5003;51986;52.788;41.368;2024-03-17T14:18:25;38.00;32.00;25.00
65383;PMS5003;51986;52.788;41.368;2024-03-17T14:20:51;38.00;32.00;24.75
65383;PMS5003;51986;52.788;41.368;2024-03-17T14:23:17;38.00;31.00;25.00
65383;PMS5003;51986;52.788;41.368;2024-03-17T14:25:43;38.00;31.00;24.00
65383;PMS5003;51986;52.788;41.368;2024-03-17T14:28:08;39.50;31.50;24.50